Terminal Aerodrome Forecast
Issued by NWS

Home | Current Version | Previous Version | Text Only | Print | Product List | Glossary On
Versions: 1 2 3 4 5 6 7 8 9 10 11 12 13 14 15
671
FTUS43 KPAH 171120
TAFCGI
TAF
KCGI 171120Z 1712/1812 20007KT P6SM VCSH SCT015 BKN045
      TEMPO 1712/1716 5SM -SHRA BR BKN015
     FM171800 23008G18KT P6SM BKN050
     FM180000 27004KT P6SM SKC=

USA.gov is the U.S. government's official web portal to all federal, state and local government web resources and services.